createdAt,value
2019-03-18T00:01:52.374Z,3.15
2019-03-18T00:04:21.910Z,2.50
2019-03-18T00:06:51.436Z,1.83
2019-03-18T00:09:20.966Z,2.60
2019-03-18T00:11:50.537Z,1.93
2019-03-18T00:17:19.812Z,1.90
2019-03-18T00:19:49.371Z,2.30
2019-03-18T00:22:18.912Z,2.40
2019-03-18T00:24:48.464Z,3.33
2019-03-18T00:27:18.005Z,2.92
2019-03-18T00:29:47.488Z,2.07
2019-03-18T00:32:17.102Z,2.80
2019-03-18T00:37:35.200Z,2.10
2019-03-18T00:40:05.454Z,4.00
2019-03-18T00:42:35.077Z,3.20
2019-03-18T00:47:43.541Z,2.60
2019-03-18T00:52:54.825Z,2.90
2019-03-18T00:55:24.363Z,3.97
2019-03-18T00:58:12.936Z,3.50
2019-03-18T01:01:01.594Z,3.52
2019-03-18T01:03:43.039Z,4.00
2019-03-18T01:06:12.597Z,3.80
2019-03-18T01:08:42.186Z,3.40
2019-03-18T01:11:11.754Z,4.20
2019-03-18T01:13:41.296Z,3.50
2019-03-18T01:16:10.963Z,3.43
2019-03-18T01:18:40.478Z,4.20
2019-03-18T01:21:10.014Z,4.70
2019-03-18T01:23:39.538Z,4.40
2019-03-18T01:26:09.041Z,4.00
2019-03-18T01:28:38.580Z,4.77
2019-03-18T01:31:08.136Z,3.93
2019-03-18T01:33:37.710Z,3.95
2019-03-18T01:36:07.925Z,4.00
2019-03-18T01:38:37.493Z,4.63
2019-03-18T01:41:07.035Z,3.80
2019-03-18T01:43:36.621Z,5.33
2019-03-18T01:46:06.137Z,4.37
2019-03-18T01:48:35.667Z,4.57
2019-03-18T01:51:24.296Z,4.30
2019-03-18T01:53:53.886Z,4.35
2019-03-18T01:56:23.432Z,5.00
2019-03-18T02:01:56.248Z,5.47
2019-03-18T02:04:31.634Z,4.00
2019-03-18T02:07:01.382Z,4.67
2019-03-18T02:09:31.154Z,4.58
2019-03-18T02:14:55.051Z,4.40
2019-03-18T02:17:24.795Z,5.50
2019-03-18T02:19:54.366Z,5.30
2019-03-18T02:22:23.886Z,4.70
2019-03-18T02:24:53.416Z,5.17
2019-03-18T02:27:22.948Z,4.08
2019-03-18T02:29:52.468Z,4.20
2019-03-18T02:35:05.419Z,5.65
2019-03-18T02:37:35.261Z,3.95
2019-03-18T02:40:24.543Z,5.95
2019-03-18T02:42:54.113Z,6.08
2019-03-18T02:45:24.909Z,5.33
2019-03-18T02:47:59.969Z,4.20
2019-03-18T02:53:37.962Z,6.23
2019-03-18T02:56:13.132Z,6.30
2019-03-18T03:01:23.838Z,5.83
2019-03-18T03:03:53.384Z,5.70
2019-03-18T03:06:24.001Z,6.03
2019-03-18T03:09:12.634Z,6.93
2019-03-18T03:11:42.155Z,4.95
2019-03-18T03:14:11.770Z,5.80
2019-03-18T03:16:41.293Z,6.17
2019-03-18T03:19:10.801Z,7.00
2019-03-18T03:21:42.006Z,6.60
2019-03-18T03:24:11.621Z,5.53
2019-03-18T03:26:41.143Z,6.13
2019-03-18T03:29:10.660Z,6.67
2019-03-18T03:31:40.171Z,5.77
2019-03-18T03:34:13.352Z,5.22
2019-03-18T03:37:00.083Z,5.93
2019-03-18T03:39:35.572Z,6.62
2019-03-18T03:42:05.552Z,6.22
2019-03-18T03:44:35.700Z,5.62
2019-03-18T03:47:05.474Z,4.07
2019-03-18T03:49:35.571Z,6.20
2019-03-18T03:54:54.039Z,5.40
2019-03-18T03:57:23.552Z,4.70
2019-03-18T03:59:53.196Z,4.90
2019-03-18T04:02:22.759Z,5.63
2019-03-18T04:04:52.290Z,4.70
2019-03-18T04:07:21.911Z,4.73
2019-03-18T04:09:51.569Z,4.77
2019-03-18T04:12:21.151Z,4.73
2019-03-18T04:14:50.740Z,5.30
2019-03-18T04:17:20.334Z,4.60
2019-03-18T04:19:49.861Z,4.67
2019-03-18T04:22:19.416Z,4.17
2019-03-18T04:24:48.973Z,5.42
2019-03-18T04:27:18.460Z,5.37
2019-03-18T04:29:47.986Z,4.80
2019-03-18T04:32:17.516Z,5.40
2019-03-18T04:34:47.056Z,5.60
2019-03-18T04:37:16.666Z,4.77
2019-03-18T04:39:46.189Z,5.80
2019-03-18T04:42:15.711Z,5.70
2019-03-18T04:44:56.949Z,5.53
2019-03-18T04:47:26.557Z,4.93
2019-03-18T04:49:56.166Z,5.23
2019-03-18T04:55:27.695Z,5.37
2019-03-18T04:57:57.501Z,5.07
2019-03-18T05:00:26.993Z,5.13
2019-03-18T05:02:56.538Z,6.20
2019-03-18T05:05:26.144Z,5.33
2019-03-18T05:07:55.740Z,5.30
2019-03-18T05:10:25.275Z,4.93
2019-03-18T05:12:54.840Z,5.13
2019-03-18T05:15:24.397Z,4.47
2019-03-18T05:17:53.919Z,4.50
2019-03-18T05:20:23.566Z,5.03
2019-03-18T05:22:53.073Z,4.85
2019-03-18T05:25:22.638Z,4.40
2019-03-18T05:27:52.194Z,4.60
2019-03-18T05:30:21.748Z,5.37
2019-03-18T05:32:51.312Z,6.47
2019-03-18T05:35:20.871Z,4.50
2019-03-18T05:37:50.462Z,4.43
2019-03-18T05:40:31.837Z,4.37
2019-03-18T05:43:01.397Z,4.50
2019-03-18T05:45:30.960Z,4.83
2019-03-18T05:48:00.510Z,4.90
2019-03-18T05:50:30.054Z,4.40
2019-03-18T05:55:48.170Z,5.70
2019-03-18T05:58:17.736Z,3.83
2019-03-18T06:00:47.332Z,4.57
2019-03-18T06:03:16.889Z,4.90
2019-03-18T06:06:05.496Z,3.52
2019-03-18T06:08:35.013Z,5.90
2019-03-18T06:11:10.340Z,5.50
2019-03-18T06:19:34.048Z,6.07
2019-03-18T06:22:15.444Z,5.67
2019-03-18T06:24:45.131Z,5.37
2019-03-18T06:27:33.783Z,6.17
2019-03-18T06:30:15.761Z,6.63
2019-03-18T06:32:45.301Z,5.10
2019-03-18T06:35:14.987Z,5.70
2019-03-18T06:38:15.648Z,5.50
2019-03-18T06:40:45.145Z,5.30
2019-03-18T06:43:34.010Z,5.67
2019-03-18T06:46:16.073Z,5.10
2019-03-18T06:48:45.631Z,5.20
2019-03-18T06:51:15.163Z,5.10
2019-03-18T06:53:44.692Z,5.40
2019-03-18T06:56:14.233Z,4.40
2019-03-18T06:58:43.761Z,5.70
2019-03-18T07:01:13.291Z,5.30
2019-03-18T07:03:42.863Z,5.90
2019-03-18T07:06:12.452Z,5.83
2019-03-18T07:08:41.970Z,4.97
2019-03-18T07:11:11.629Z,5.20
2019-03-18T07:13:41.134Z,4.63
2019-03-18T07:16:10.670Z,5.63
2019-03-18T07:18:40.252Z,5.67
2019-03-18T07:21:09.816Z,4.13
2019-03-18T07:23:39.378Z,5.53
2019-03-18T07:26:08.935Z,5.35
2019-03-18T07:28:38.475Z,5.03
2019-03-18T07:31:08.060Z,4.87
2019-03-18T07:33:37.602Z,4.17
2019-03-18T07:36:07.852Z,3.70
2019-03-18T07:41:45.126Z,4.67
2019-03-18T07:44:14.692Z,4.67
2019-03-18T07:46:44.248Z,3.80
2019-03-18T07:52:16.039Z,4.10
2019-03-18T07:54:45.566Z,4.23
2019-03-18T07:57:15.149Z,4.07
2019-03-18T07:59:46.764Z,2.80
2019-03-18T08:02:35.584Z,3.20
2019-03-18T08:05:05.999Z,3.23
2019-03-18T08:07:35.543Z,3.43
2019-03-18T08:13:39.295Z,2.93
2019-03-18T08:16:08.847Z,3.47
2019-03-18T08:18:43.150Z,4.30
2019-03-18T08:21:28.946Z,3.10
2019-03-18T08:23:58.521Z,3.08
2019-03-18T08:26:47.351Z,2.83
2019-03-18T08:29:36.265Z,2.77
2019-03-18T08:32:05.813Z,2.07
2019-03-18T08:34:35.352Z,2.07
2019-03-18T08:37:04.861Z,3.90
2019-03-18T08:39:34.402Z,2.27
2019-03-18T08:42:03.926Z,2.20
2019-03-18T08:44:33.465Z,2.10
2019-03-18T08:47:22.282Z,2.50
2019-03-18T08:49:51.776Z,2.10
2019-03-18T08:52:21.312Z,3.83
2019-03-18T08:54:50.859Z,2.50
2019-03-18T08:57:20.425Z,2.90
2019-03-18T08:59:49.947Z,2.60
2019-03-18T09:02:19.483Z,2.67
2019-03-18T09:04:48.997Z,2.33
2019-03-18T09:07:18.555Z,4.97
2019-03-18T09:09:48.060Z,2.73
2019-03-18T09:12:17.611Z,3.12
2019-03-18T09:18:00.092Z,1.63
2019-03-18T09:20:35.541Z,1.73
2019-03-18T09:23:05.166Z,2.50
2019-03-18T09:26:14.528Z,2.35
2019-03-18T09:28:44.125Z,2.30
2019-03-18T09:33:55.247Z,1.73
2019-03-18T09:36:24.989Z,1.85
2019-03-18T09:38:54.963Z,3.27
2019-03-18T09:41:24.996Z,1.40
2019-03-18T09:43:55.075Z,2.77
2019-03-18T09:49:46.203Z,3.23
2019-03-18T09:52:15.773Z,2.00
2019-03-18T09:54:45.306Z,3.40
2019-03-18T09:57:25.412Z,1.90
2019-03-18T09:59:51.645Z,3.37
2019-03-18T10:02:21.139Z,2.70
2019-03-18T10:04:50.721Z,2.93
2019-03-18T10:10:33.467Z,3.23
2019-03-18T10:13:03.099Z,2.53
2019-03-18T10:15:32.610Z,3.50
2019-03-18T10:18:02.144Z,2.02
2019-03-18T10:20:31.684Z,2.07
2019-03-18T10:23:13.610Z,3.40
2019-03-18T10:25:43.135Z,2.15
2019-03-18T10:28:12.655Z,2.70
2019-03-18T10:30:42.168Z,2.83
2019-03-18T10:33:31.041Z,2.47
2019-03-18T10:44:39.044Z,1.33
2019-03-18T10:47:08.545Z,1.60
2019-03-18T10:49:57.135Z,1.60
2019-03-18T10:55:39.470Z,1.90
2019-03-18T10:58:09.069Z,2.40
2019-03-18T11:00:38.593Z,1.70
2019-03-18T11:03:08.128Z,1.63
2019-03-18T11:05:56.937Z,2.20
2019-03-18T11:08:45.486Z,1.73
2019-03-18T11:14:28.512Z,1.20
2019-03-18T11:16:58.054Z,1.30
2019-03-18T11:19:27.622Z,2.13
2019-03-18T11:21:57.174Z,1.53
2019-03-18T11:24:26.695Z,1.60
2019-03-18T11:26:56.235Z,1.20
2019-03-18T11:29:44.901Z,1.20
2019-03-18T11:32:14.445Z,1.20
2019-03-18T11:34:44.002Z,1.23
2019-03-18T11:37:13.575Z,1.37
2019-03-18T11:39:43.167Z,1.10
2019-03-18T11:45:15.571Z,1.20
2019-03-18T11:47:45.165Z,1.20
2019-03-18T11:50:34.139Z,1.13
2019-03-18T11:53:13.833Z,1.43
2019-03-18T11:55:43.866Z,1.90
2019-03-18T11:58:13.362Z,2.10
2019-03-18T12:00:42.978Z,1.77
2019-03-18T12:03:14.121Z,1.90
2019-03-18T12:05:43.682Z,1.97
2019-03-18T12:14:15.843Z,2.50
2019-03-18T12:16:45.384Z,1.47
2019-03-18T12:19:14.957Z,1.37
2019-03-18T12:21:44.497Z,1.47
2019-03-18T12:24:14.051Z,1.30
2019-03-18T12:26:43.796Z,1.60
2019-03-18T12:29:13.344Z,1.23
2019-03-18T12:31:42.999Z,2.67
2019-03-18T12:34:12.639Z,0.93
2019-03-18T12:36:42.203Z,1.43
2019-03-18T12:39:11.733Z,1.33
2019-03-18T12:41:41.219Z,1.40
2019-03-18T12:44:30.032Z,1.67
2019-03-18T12:49:53.309Z,1.30
2019-03-18T12:52:22.927Z,1.73
2019-03-18T12:54:52.468Z,1.40
2019-03-18T12:57:21.963Z,1.43
2019-03-18T12:59:51.548Z,0.90
2019-03-18T13:02:21.151Z,0.63
2019-03-18T13:04:50.671Z,0.70
2019-03-18T13:10:33.520Z,0.70
2019-03-18T13:13:09.955Z,0.70
2019-03-18T13:15:39.525Z,0.80
2019-03-18T13:18:09.108Z,1.40
2019-03-18T13:20:38.714Z,0.93
2019-03-18T13:23:08.240Z,0.88
2019-03-18T13:25:37.819Z,0.80
2019-03-18T13:30:55.948Z,1.43
2019-03-18T13:33:25.471Z,1.03
2019-03-18T13:35:55.002Z,1.53
2019-03-18T13:38:24.557Z,1.23
2019-03-18T13:40:55.684Z,1.93
2019-03-18T13:43:28.005Z,1.27
2019-03-18T13:46:02.006Z,1.37
2019-03-18T13:48:31.521Z,2.10
2019-03-18T13:51:21.328Z,1.10
2019-03-18T13:57:10.260Z,1.40
2019-03-18T13:59:39.813Z,1.22
2019-03-18T14:02:09.356Z,1.40
2019-03-18T14:04:38.942Z,1.33
2019-03-18T14:07:08.502Z,1.00
2019-03-18T14:09:38.093Z,1.40
2019-03-18T14:12:07.623Z,1.53
2019-03-18T14:14:37.162Z,2.12
2019-03-18T14:17:25.989Z,1.40
2019-03-18T14:19:55.504Z,1.80
2019-03-18T14:25:06.758Z,1.57
2019-03-18T14:27:36.444Z,1.62
2019-03-18T14:30:07.634Z,1.70
2019-03-18T14:32:37.153Z,1.30
2019-03-18T14:35:26.092Z,1.60
2019-03-18T14:38:14.885Z,2.20
2019-03-18T14:40:44.407Z,1.60
2019-03-18T14:43:13.960Z,1.77
2019-03-18T14:45:43.513Z,1.00
2019-03-18T14:48:18.919Z,1.23
2019-03-18T14:50:48.418Z,0.90
2019-03-18T14:53:17.956Z,1.33
2019-03-18T14:55:47.520Z,0.90
2019-03-18T14:58:17.039Z,0.90
2019-03-18T15:00:46.559Z,1.00
2019-03-18T15:03:16.153Z,2.00
2019-03-18T15:05:45.679Z,1.43
2019-03-18T15:08:15.289Z,1.10
2019-03-18T15:11:03.971Z,1.20
2019-03-18T15:13:35.159Z,1.10
2019-03-18T15:16:04.844Z,1.30
2019-03-18T15:18:34.439Z,0.90
2019-03-18T15:21:03.939Z,1.83
2019-03-18T15:23:33.459Z,1.43
2019-03-18T15:26:05.199Z,1.10
2019-03-18T15:28:39.551Z,1.30
2019-03-18T15:31:09.118Z,1.20
2019-03-18T15:33:38.686Z,1.57
2019-03-18T15:36:08.915Z,1.30
2019-03-18T15:38:38.458Z,1.27
2019-03-18T15:41:07.999Z,1.13
2019-03-18T15:43:37.561Z,2.03
2019-03-18T15:46:07.166Z,1.30
2019-03-18T15:48:36.698Z,1.57
2019-03-18T15:51:06.279Z,1.93
2019-03-18T15:53:35.784Z,1.20
2019-03-18T15:56:24.420Z,1.50
2019-03-18T15:58:53.959Z,1.33
2019-03-18T16:04:44.797Z,1.57
2019-03-18T16:07:14.323Z,1.47
2019-03-18T16:09:43.831Z,1.20
2019-03-18T16:12:32.418Z,2.00
2019-03-18T16:18:03.736Z,1.45
2019-03-18T16:20:33.236Z,1.40
2019-03-18T16:23:02.765Z,1.30
2019-03-18T16:28:32.102Z,1.50
2019-03-18T16:31:01.704Z,1.25
2019-03-18T16:33:31.262Z,2.83
2019-03-18T16:36:00.777Z,2.60
2019-03-18T16:38:30.361Z,1.43
2019-03-18T16:40:59.865Z,2.10
2019-03-18T16:46:34.204Z,1.30
2019-03-18T16:49:03.771Z,1.60
2019-03-18T16:51:52.309Z,1.30
2019-03-18T16:54:21.841Z,1.52
2019-03-18T16:56:51.367Z,1.70
2019-03-18T16:59:21.026Z,2.33
2019-03-18T17:02:09.851Z,2.30
2019-03-18T17:04:39.403Z,1.40
2019-03-18T17:07:08.953Z,2.23
2019-03-18T17:09:38.516Z,1.70
2019-03-18T17:15:10.410Z,1.60
2019-03-18T17:20:21.240Z,1.43
2019-03-18T17:25:32.230Z,1.67
2019-03-18T17:28:01.968Z,1.60
2019-03-18T17:30:31.539Z,1.70
2019-03-18T17:35:42.795Z,2.60
2019-03-18T17:38:12.377Z,1.73
2019-03-18T17:40:47.735Z,1.97
2019-03-18T17:46:11.990Z,2.13
2019-03-18T17:48:41.490Z,2.00
2019-03-18T17:51:11.073Z,1.30
2019-03-18T17:56:30.101Z,1.80
2019-03-18T17:59:12.692Z,1.17
2019-03-18T18:01:42.430Z,2.08
2019-03-18T18:04:12.036Z,1.43
2019-03-18T18:06:41.600Z,2.00
2019-03-18T18:09:30.264Z,1.87
2019-03-18T18:11:59.834Z,2.27
2019-03-18T18:14:34.868Z,1.70
2019-03-18T18:17:04.410Z,1.80
2019-03-18T18:19:52.989Z,2.37
2019-03-18T18:22:22.551Z,2.67
2019-03-18T18:24:52.106Z,2.00
2019-03-18T18:27:21.651Z,2.00
2019-03-18T18:29:51.208Z,1.20
2019-03-18T18:32:20.789Z,2.43
2019-03-18T18:34:51.013Z,1.70
2019-03-18T18:40:10.573Z,1.20
2019-03-18T18:42:40.140Z,1.83
2019-03-18T18:45:10.170Z,2.20
2019-03-18T18:47:39.693Z,1.70
2019-03-18T18:50:09.544Z,1.97
2019-03-18T18:52:39.041Z,2.20
2019-03-18T18:55:08.713Z,1.75
2019-03-18T18:57:38.243Z,3.87
2019-03-18T19:00:09.980Z,1.70
2019-03-18T19:02:39.547Z,1.37
2019-03-18T19:05:09.926Z,1.80
2019-03-18T19:07:58.526Z,1.60
2019-03-18T19:10:28.058Z,1.50
2019-03-18T19:12:57.670Z,1.40
2019-03-18T19:15:27.205Z,1.90
2019-03-18T19:17:56.737Z,1.85
2019-03-18T19:20:45.384Z,1.77
2019-03-18T19:26:17.195Z,1.73
2019-03-18T19:28:46.796Z,2.22
2019-03-18T19:31:16.355Z,1.40
2019-03-18T19:33:45.935Z,1.60
2019-03-18T19:36:15.500Z,1.53
2019-03-18T19:38:45.030Z,2.00
2019-03-18T19:41:14.617Z,2.40
2019-03-18T19:43:44.167Z,1.60
2019-03-18T19:46:13.801Z,1.87
2019-03-18T19:48:43.325Z,1.82
2019-03-18T19:51:31.990Z,1.83
2019-03-18T19:54:01.592Z,2.23
2019-03-18T19:56:31.168Z,1.97
2019-03-18T19:59:00.814Z,2.33
2019-03-18T20:01:49.378Z,2.95
2019-03-18T20:04:18.878Z,1.40
2019-03-18T20:06:48.434Z,1.45
2019-03-18T20:09:18.012Z,1.30
2019-03-18T20:11:47.625Z,1.70
2019-03-18T20:14:17.148Z,2.33
2019-03-18T20:16:46.682Z,1.70
2019-03-18T20:19:16.227Z,1.50
2019-03-18T20:21:47.464Z,1.40
2019-03-18T20:24:17.014Z,1.30
2019-03-18T20:26:46.589Z,1.30
2019-03-18T20:29:16.130Z,1.23
2019-03-18T20:32:04.995Z,1.63
2019-03-18T20:34:34.593Z,1.27
2019-03-18T20:37:04.405Z,1.43
2019-03-18T20:39:35.588Z,1.63
2019-03-18T20:42:05.187Z,1.70
2019-03-18T20:44:34.731Z,1.10
2019-03-18T20:47:16.481Z,2.47
2019-03-18T20:49:46.234Z,1.30
2019-03-18T20:52:17.061Z,2.00
2019-03-18T20:55:26.951Z,2.10
2019-03-18T20:57:56.566Z,1.80
2019-03-18T21:00:45.263Z,1.43
2019-03-18T21:03:14.854Z,1.40
2019-03-18T21:05:44.420Z,1.93
2019-03-18T21:08:14.022Z,1.03
2019-03-18T21:10:43.628Z,1.50
2019-03-18T21:13:13.164Z,2.43
2019-03-18T21:15:42.689Z,1.10
2019-03-18T21:18:18.110Z,1.67
2019-03-18T21:20:47.618Z,1.98
2019-03-18T21:23:17.191Z,1.60
2019-03-18T21:25:46.781Z,1.40
2019-03-18T21:28:16.349Z,1.47
2019-03-18T21:30:45.898Z,1.40
2019-03-18T21:33:17.055Z,1.47
2019-03-18T21:35:48.178Z,1.50
2019-03-18T21:38:17.859Z,2.07
2019-03-18T21:40:47.400Z,1.20
2019-03-18T21:43:16.933Z,1.33
2019-03-18T21:45:46.447Z,1.93
2019-03-18T21:48:15.996Z,1.33
2019-03-18T21:50:45.572Z,1.73
2019-03-18T21:53:15.125Z,1.10
2019-03-18T21:55:44.660Z,1.73
2019-03-18T21:58:14.227Z,1.30
2019-03-18T22:00:43.813Z,1.73
2019-03-18T22:03:13.373Z,2.27
2019-03-18T22:09:08.719Z,1.43
2019-03-18T22:11:38.259Z,1.03
2019-03-18T22:16:56.359Z,2.10
2019-03-18T22:19:25.907Z,1.30
2019-03-18T22:22:14.661Z,1.90
2019-03-18T22:24:45.633Z,3.15
2019-03-18T22:27:34.932Z,1.30
2019-03-18T22:30:10.065Z,1.97
2019-03-18T22:32:58.666Z,1.53
2019-03-18T22:35:28.200Z,1.80
2019-03-18T22:37:57.928Z,1.83
2019-03-18T22:40:27.608Z,1.63
2019-03-18T22:42:57.132Z,1.53
2019-03-18T22:45:26.740Z,1.93
2019-03-18T22:48:15.396Z,1.63
2019-03-18T22:50:44.950Z,1.70
2019-03-18T22:53:33.541Z,1.60
2019-03-18T22:56:03.078Z,2.03
2019-03-18T22:58:32.644Z,2.00
2019-03-18T23:04:04.930Z,2.13
2019-03-18T23:06:34.471Z,1.50
2019-03-18T23:09:15.697Z,1.40
2019-03-18T23:11:45.300Z,1.40
2019-03-18T23:14:33.882Z,1.50
2019-03-18T23:17:15.990Z,2.30
2019-03-18T23:19:45.562Z,1.50
2019-03-18T23:22:15.118Z,1.10
2019-03-18T23:24:44.779Z,1.30
2019-03-18T23:27:14.284Z,1.13
2019-03-18T23:29:43.917Z,1.70
2019-03-18T23:32:13.438Z,1.27
2019-03-18T23:37:24.685Z,1.82
2019-03-18T23:39:54.730Z,1.35
2019-03-18T23:42:24.648Z,1.70
2019-03-18T23:44:54.668Z,1.32
2019-03-18T23:47:44.081Z,1.07
2019-03-18T23:50:13.663Z,1.50
2019-03-18T23:52:43.534Z,1.50
2019-03-18T23:55:19.417Z,1.47
2019-03-18T23:58:15.238Z,1.97
